Time;durP1;ratioP1;P1;durP2;ratioP2;P2;SDS_P1;SDS_P2;PMS_P1;PMS_P2;Temp;Humidity;BMP_temperature;BMP_pressure;BME280_temperature;BME280_humidity;BME280_pressure;Samples;Min_cycle;Max_cycle;Signal;HPM_P1;HPM_P2
2021/12/27 00:00:51;;;;;;;7.60;6.23;;;;;;;-12.55;74.61;100428.34;5015991;28;20440;-68
2021/12/27 00:03:16;;;;;;;9.47;6.80;;;;;;;-12.65;74.50;100442.22;5015559;28;20547;-66
2021/12/27 00:05:42;;;;;;;11.50;6.80;;;;;;;-12.82;74.41;100429.66;5016020;28;20044;-70
2021/12/27 00:08:08;;;;;;;8.53;7.07;;;;;;;-12.64;74.51;100455.00;4981589;28;20099;-70
2021/12/27 00:10:37;;;;;;;6.63;6.00;;;;;;;-12.61;75.11;100464.38;5015352;28;20045;-68
2021/12/27 00:13:04;;;;;;;;;;;;;;;-12.53;74.60;100467.66;4982543;28;20050;-70
2021/12/27 00:15:36;;;;;;;10.35;6.35;;;;;;;-12.57;74.86;100460.88;5014856;28;19924;-70
2021/12/27 00:18:02;;;;;;;7.72;5.72;;;;;;;-12.83;74.62;100403.16;4995709;28;20423;-72
2021/12/27 00:20:28;;;;;;;7.57;5.65;;;;;;;-12.47;74.91;100466.69;4997090;28;20405;-68
2021/12/27 00:23:11;;;;;;;6.60;6.03;;;;;;;-12.58;74.88;100457.47;5029688;28;20064;-73
2021/12/27 00:25:36;;;;;;;10.73;7.10;;;;;;;-12.57;74.60;100476.28;5014905;28;20125;-69
2021/12/27 00:28:13;;;;;;;7.67;6.83;;;;;;;-12.72;74.92;100449.19;4996268;28;20408;-70
2021/12/27 00:30:46;;;;;;;10.48;7.47;;;;;;;-12.92;74.97;100407.63;4996612;28;20084;-68
2021/12/27 00:33:12;;;;;;;6.38;5.78;;;;;;;-12.54;74.81;100468.53;5015030;28;20045;-72
2021/12/27 00:35:40;;;;;;;6.93;6.23;;;;;;;-12.45;74.91;100475.22;5015233;28;20040;-70
2021/12/27 00:38:06;;;;;;;9.10;7.43;;;;;;;-13.05;74.73;100378.75;5014484;28;20095;-71
2021/12/27 00:40:31;;;;;;;7.87;6.93;;;;;;;-12.39;74.94;100481.13;5014397;28;20132;-68
2021/12/27 00:42:57;;;;;;;8.73;7.70;;;;;;;-12.40;74.78;100484.56;4997216;28;20277;-67
2021/12/27 00:45:52;;;;;;;8.73;7.37;;;;;;;-12.36;74.85;100495.59;5014693;28;20029;-68
2021/12/27 00:48:22;;;;;;;7.78;6.93;;;;;;;-12.34;75.04;100492.13;5014022;28;20560;-69
2021/12/27 00:50:48;;;;;;;7.43;6.67;;;;;;;-12.23;75.21;100502.22;5014470;28;20061;-66
2021/12/27 00:53:13;;;;;;;7.80;7.07;;;;;;;-12.23;75.39;100502.22;5014209;28;20037;-67
2021/12/27 00:55:43;;;;;;;10.43;6.43;;;;;;;-12.48;75.30;100462.44;5015377;28;20042;-68
2021/12/27 00:58:10;;;;;;;8.67;7.13;;;;;;;-12.16;75.34;100505.50;5017818;28;20133;-66
2021/12/27 01:00:36;;;;;;;9.13;8.18;;;;;;;-12.15;75.52;100507.19;5000227;28;20477;-70
2021/12/27 01:03:03;;;;;;;8.40;7.17;;;;;;;-12.16;75.88;100515.78;5019159;28;20052;-68
2021/12/27 01:05:29;;;;;;;10.10;7.32;;;;;;;-12.07;75.65;100529.31;5018486;28;20129;-67
2021/12/27 01:07:54;;;;;;;9.85;7.43;;;;;;;-12.06;75.68;100531.00;5019659;28;20062;-65
2021/12/27 01:17:47;;;;;;;7.07;6.05;;;;;;;-11.97;76.52;100520.56;5001951;28;20060;-66
2021/12/27 01:20:17;;;;;;;15.68;8.02;;;;;;;-11.95;76.57;100513.69;5017713;28;20492;-67
2021/12/27 01:22:42;;;;;;;9.77;8.02;;;;;;;-11.92;76.37;100510.22;5017803;28;20080;-68
2021/12/27 01:25:09;;;;;;;9.33;8.20;;;;;;;-12.29;76.82;100446.72;5001419;28;20037;-70
2021/12/27 01:27:35;;;;;;;10.98;7.75;;;;;;;-11.81;76.97;100520.31;5018876;28;20061;-68
2021/12/27 01:30:03;;;;;;;8.95;6.90;;;;;;;-11.71;76.72;100514.06;5001115;28;20040;-64
2021/12/27 01:32:34;;;;;;;9.00;7.18;;;;;;;-11.64;76.92;100516.50;5018219;28;20045;-65
2021/12/27 01:34:59;;;;;;;10.68;7.50;;;;;;;-11.62;76.42;100512.16;5033731;28;20396;-68
2021/12/27 01:37:25;;;;;;;9.13;7.33;;;;;;;-11.75;76.42;100473.91;4999608;28;20034;-68
2021/12/27 01:39:50;;;;;;;7.80;6.93;;;;;;;-11.46;76.14;100509.31;5017680;28;20052;-68
2021/12/27 01:42:16;;;;;;;11.33;6.90;;;;;;;-11.28;76.02;100526.91;5001691;28;20037;-69
2021/12/27 01:44:42;;;;;;;8.13;7.17;;;;;;;-11.23;76.39;100529.41;5019524;28;20037;-65
2021/12/27 01:47:09;;;;;;;8.57;7.30;;;;;;;-11.22;75.94;100525.97;5000373;28;20034;-68
2021/12/27 01:49:36;;;;;;;9.98;8.75;;;;;;;-11.22;75.88;100515.69;5016647;28;20041;-68
2021/12/27 01:52:01;;;;;;;9.05;8.15;;;;;;;-11.11;76.04;100527.41;5016944;28;20034;-65
2021/12/27 01:54:27;;;;;;;10.23;8.17;;;;;;;-11.14;76.11;100522.34;5016544;28;20034;-67
2021/12/27 01:56:52;;;;;;;9.13;7.07;;;;;;;-11.03;76.28;100517.81;5015267;28;20046;-71
2021/12/27 01:59:18;;;;;;;8.80;7.90;;;;;;;-11.07;76.14;100516.19;4996036;28;20034;-69
2021/12/27 02:01:44;;;;;;;8.00;6.60;;;;;;;-10.93;76.26;100533.06;5013864;28;20030;-67
2021/12/27 02:04:10;;;;;;;8.27;7.47;;;;;;;-10.90;76.28;100525.28;4996314;28;20029;-71
2021/12/27 02:06:36;;;;;;;9.20;7.67;;;;;;;-10.98;76.42;100513.44;4995974;28;20064;-68
2021/12/27 02:09:04;;;;;;;15.57;7.70;;;;;;;-10.83;76.43;100530.22;5013400;28;20065;-69
2021/12/27 02:11:34;;;;;;;10.35;7.28;;;;;;;-11.62;76.04;100396.56;5013268;28;20042;-70
2021/12/27 02:14:04;;;;;;;8.95;7.47;;;;;;;-10.92;75.98;100519.31;5013480;28;20040;-71
2021/12/27 02:16:30;;;;;;;8.48;7.45;;;;;;;-10.95;76.05;100517.66;5013298;28;20033;-70
2021/12/27 02:18:56;;;;;;;9.60;7.68;;;;;;;-10.77;75.62;100536.97;5013866;28;20038;-70
2021/12/27 02:21:23;;;;;;;7.97;6.53;;;;;;;-10.82;75.64;100531.06;5013838;28;20036;-69
2021/12/27 02:23:50;;;;;;;10.50;8.13;;;;;;;-10.78;75.63;100538.69;5013745;28;20033;-69
2021/12/27 02:26:16;;;;;;;8.25;7.43;;;;;;;-10.92;75.52;100514.16;5013450;28;20033;-72
2021/12/27 02:28:42;;;;;;;7.40;6.70;;;;;;;-10.78;75.75;100536.13;5028439;28;20057;-69
2021/12/27 02:31:08;;;;;;;10.03;8.30;;;;;;;-10.78;75.62;100519.84;5013409;28;20044;-68
2021/12/27 02:33:39;;;;;;;8.95;6.72;;;;;;;-10.71;75.62;100534.25;5016896;28;20096;-68
2021/12/27 02:36:06;;;;;;;8.38;6.68;;;;;;;-10.75;76.08;100524.91;5013210;28;20089;-70
2021/12/27 02:38:35;;;;;;;8.77;7.88;;;;;;;-10.62;75.85;100539.22;4995089;28;20129;-69
2021/12/27 02:41:01;;;;;;;11.00;6.25;;;;;;;-10.75;75.65;100512.03;4978741;28;20509;-70
2021/12/27 02:43:31;;;;;;;7.13;6.40;;;;;;;-10.51;75.89;100541.50;5012736;28;20045;-66
2021/12/27 02:46:03;;;;;;;8.60;6.72;;;;;;;-10.52;75.99;100539.81;4995776;28;20417;-71
2021/12/27 02:48:32;;;;;;;10.68;7.53;;;;;;;-10.48;75.97;100551.75;5013328;28;20041;-69
2021/12/27 02:50:58;;;;;;;7.40;6.38;;;;;;;-10.49;76.24;100540.59;5013875;28;20040;-67
2021/12/27 02:53:25;;;;;;;10.43;7.90;;;;;;;-10.46;76.06;100534.53;5012850;28;20084;-68
2021/12/27 02:55:52;;;;;;;11.05;7.63;;;;;;;-10.43;75.91;100549.91;4995430;28;20037;-67
2021/12/27 02:58:19;;;;;;;6.40;5.60;;;;;;;-10.41;76.15;100542.97;5028857;28;20092;-67
2021/12/27 03:00:57;;;;;;;8.73;6.55;;;;;;;-10.34;76.34;100547.13;5013396;28;20084;-67
2021/12/27 03:03:23;;;;;;;9.15;7.07;;;;;;;-10.38;76.47;100548.94;5013514;28;20382;-70
2021/12/27 03:05:49;;;;;;;9.20;7.25;;;;;;;-10.61;76.15;100512.59;5012703;28;20485;-69
2021/12/27 03:08:23;;;;;;;10.10;7.78;;;;;;;-10.37;76.64;100549.78;5012699;28;20058;-67
2021/12/27 03:10:51;;;;;;;8.48;7.53;;;;;;;-10.33;76.51;100567.69;5012893;28;20045;-70
2021/12/27 03:13:29;;;;;;;9.77;7.03;;;;;;;-10.29;76.80;100557.31;4995625;28;20413;-67
2021/12/27 03:15:58;;;;;;;11.75;7.88;;;;;;;-10.38;76.77;100548.94;5012591;28;20520;-67
2021/12/27 03:18:24;;;;;;;;;;;;;;;-10.23;76.24;100564.88;5011402;28;20037;-71
2021/12/27 03:20:50;;;;;;;7.53;6.83;;;;;;;-10.26;76.54;100560.66;5012835;28;20399;-71
2021/12/27 03:23:16;;;;;;;8.30;7.15;;;;;;;-10.67;76.48;100499.88;4994279;28;20478;-68
2021/12/27 03:25:42;;;;;;;8.35;7.18;;;;;;;-10.27;76.58;100563.25;5012302;28;20042;-68
2021/12/27 03:28:08;;;;;;;7.60;6.60;;;;;;;-10.25;76.59;100558.94;4994830;28;20038;-67
2021/12/27 03:30:34;;;;;;;8.33;7.47;;;;;;;-10.18;76.66;100571.56;5012341;28;20042;-71
2021/12/27 03:32:59;;;;;;;7.95;6.55;;;;;;;-10.23;76.64;100558.00;5027657;28;20481;-68
2021/12/27 03:35:28;;;;;;;9.47;6.80;;;;;;;-10.17;76.38;100573.25;5012131;28;20029;-69
2021/12/27 03:37:58;;;;;;;8.13;6.10;;;;;;;-10.10;76.54;100579.13;5012142;28;20200;-70
2021/12/27 03:40:25;;;;;;;6.85;6.22;;;;;;;-10.17;76.62;100569.84;5012802;28;20523;-68
2021/12/27 03:42:51;;;;;;;8.27;7.47;;;;;;;-10.10;76.62;100585.13;4994736;28;20405;-70
2021/12/27 03:45:33;;;;;;;11.10;7.80;;;;;;;-10.16;76.90;100574.13;4994616;28;20049;-68
2021/12/27 03:47:59;;;;;;;6.88;5.90;;;;;;;-10.06;76.70;100588.47;5012018;28;20481;-70
2021/12/27 03:50:25;;;;;;;6.30;5.70;;;;;;;-10.13;76.81;100577.44;5012680;28;20050;-69
2021/12/27 03:52:51;;;;;;;7.03;5.93;;;;;;;-10.16;77.05;100587.84;5014445;28;20034;-70
2021/12/27 03:55:17;;;;;;;8.70;7.07;;;;;;;-10.19;76.79;100593.06;4982841;28;20508;-66
2021/12/27 03:57:51;;;;;;;10.43;7.53;;;;;;;-10.24;76.88;100576.06;5016869;28;20038;-69
2021/12/27 04:03:21;;;;;;;7.72;6.97;;;;;;;-10.25;76.97;100579.53;5016587;28;20053;-69
2021/12/27 04:05:47;;;;;;;8.65;6.00;;;;;;;-10.17;76.96;100604.16;5015950;28;20063;-71
2021/12/27 04:08:18;;;;;;;7.53;6.63;;;;;;;-10.12;76.80;100622.09;5015910;28;20068;-69
2021/12/27 04:10:45;;;;;;;10.60;8.23;;;;;;;-10.24;77.00;100604.38;5015983;28;20042;-67
2021/12/27 04:13:11;;;;;;;9.05;6.43;;;;;;;-10.20;76.38;100603.44;4997957;28;20037;-69
2021/12/27 04:15:38;;;;;;;7.80;6.38;;;;;;;-10.29;76.59;100608.81;5016090;28;20036;-70
2021/12/27 04:18:04;;;;;;;8.32;6.68;;;;;;;-10.18;76.23;100638.53;5016435;28;20120;-70
2021/12/27 04:20:30;;;;;;;16.15;7.80;;;;;;;-10.36;75.85;100614.09;5030893;28;20405;-72
2021/12/27 04:22:56;;;;;;;7.57;6.83;;;;;;;-10.28;76.55;100623.38;5015499;28;20084;-71
2021/12/27 04:25:32;;;;;;;9.32;6.53;;;;;;;-10.46;76.52;100599.72;4997293;28;20567;-67
2021/12/27 04:28:08;;;;;;;7.20;6.60;;;;;;;-10.53;76.81;100611.03;4996707;28;20037;-69
2021/12/27 04:30:44;;;;;;;8.75;6.78;;;;;;;-10.43;76.58;100638.25;4981738;28;20541;-69
2021/12/27 04:33:18;;;;;;;8.38;7.47;;;;;;;-10.38;76.84;100651.91;4980806;28;20559;-70
2021/12/27 04:35:51;;;;;;;7.32;6.40;;;;;;;-10.60;76.61;100624.09;4996646;28;20129;-70
2021/12/27 04:38:23;;;;;;;7.63;6.53;;;;;;;-10.69;76.94;100620.00;4995917;28;20570;-70
2021/12/27 04:40:51;;;;;;;9.63;7.55;;;;;;;-10.60;76.77;100640.38;5014268;28;20026;-67
2021/12/27 04:43:20;;;;;;;10.02;7.32;;;;;;;-10.53;77.07;100641.94;4996347;28;20038;-69
2021/12/27 04:45:46;;;;;;;;;;;;;;;-10.24;76.57;100681.63;5013792;28;20046;-72
2021/12/27 04:48:16;;;;;;;7.57;6.45;;;;;;;-10.71;76.52;100593.41;4997421;28;19917;-69
2021/12/27 04:50:47;;;;;;;14.18;7.70;;;;;;;-10.43;76.46;100640.00;5012410;28;20040;-70
2021/12/27 04:53:13;;;;;;;;;;;;;;;-10.14;76.18;100690.81;5014996;28;20424;-70
2021/12/27 04:55:44;;;;;;;9.80;7.00;;;;;;;-10.17;75.90;100685.72;5012713;28;19990;-70
2021/12/27 04:58:11;;;;;;;8.65;6.53;;;;;;;-10.42;75.96;100649.41;5014162;28;20042;-69
2021/12/27 05:00:37;;;;;;;7.93;7.13;;;;;;;-10.22;76.39;100687.59;4996013;28;20049;-69
2021/12/27 05:03:03;;;;;;;14.25;7.45;;;;;;;-10.40;75.92;100679.41;5014121;28;20038;-68
2021/12/27 05:05:32;;;;;;;8.57;7.53;;;;;;;-10.35;75.79;100705.06;4979967;28;20097;-68
2021/12/27 05:08:00;;;;;;;10.23;7.50;;;;;;;-10.34;75.84;100701.59;5014164;28;20284;-69
2021/12/27 05:10:27;;;;;;;11.30;6.82;;;;;;;-10.39;76.00;100703.44;5014916;28;20171;-70
2021/12/27 05:12:53;;;;;;;9.68;7.82;;;;;;;-10.52;75.96;100699.41;5014122;28;20050;-66
2021/12/27 05:15:18;;;;;;;13.35;8.60;;;;;;;-10.51;76.31;100701.94;5014284;28;20120;-65
2021/12/27 05:17:44;;;;;;;12.23;8.50;;;;;;;-10.98;76.25;100652.31;5014004;28;20113;-71
2021/12/27 05:20:10;;;;;;;8.67;7.47;;;;;;;-10.63;76.30;100715.06;4996825;28;20038;-75
2021/12/27 05:22:37;;;;;;;9.75;8.57;;;;;;;-10.62;76.33;100721.91;5015322;28;20073;-67
2021/12/27 05:25:04;;;;;;;11.90;7.32;;;;;;;-10.68;76.30;100719.47;5015552;28;20034;-72
2021/12/27 05:27:29;;;;;;;11.52;8.10;;;;;;;-10.73;76.38;100724.69;4997762;28;20044;-68
2021/12/27 05:29:56;;;;;;;8.03;7.23;;;;;;;-10.70;76.55;100728.91;5014706;28;20034;-65
2021/12/27 05:32:21;;;;;;;8.45;7.45;;;;;;;-10.85;76.33;100718.94;5013096;28;20837;-65
2021/12/27 05:34:47;;;;;;;10.53;7.10;;;;;;;-10.67;76.72;100746.91;5013281;28;20034;-65
2021/12/27 05:37:12;;;;;;;9.37;7.33;;;;;;;-10.78;76.36;100744.50;5014207;28;20030;-66
2021/12/27 05:39:38;;;;;;;6.93;6.27;;;;;;;-10.91;76.36;100726.78;4996143;28;20109;-65
2021/12/27 05:42:04;;;;;;;10.90;7.37;;;;;;;-10.82;76.49;100742.03;5013719;28;20048;-67
2021/12/27 05:44:30;;;;;;;12.45;8.13;;;;;;;-10.85;76.08;100757.53;5012397;28;20025;-69
2021/12/27 05:47:07;;;;;;;11.07;7.27;;;;;;;-10.96;76.59;100755.16;5012756;28;20063;-67
2021/12/27 05:49:35;;;;;;;8.60;7.75;;;;;;;-11.77;76.79;100635.78;5014107;28;20084;-72
2021/12/27 05:52:00;;;;;;;9.83;7.63;;;;;;;-11.13;77.17;100758.03;4996201;28;20033;-71
2021/12/27 05:54:26;;;;;;;12.87;8.13;;;;;;;-11.23;77.37;100758.22;4995971;28;20045;-72
2021/12/27 05:56:51;;;;;;;9.37;7.17;;;;;;;-11.22;77.48;100753.03;5014394;28;20042;-73
2021/12/27 05:59:17;;;;;;;10.93;7.33;;;;;;;-11.16;77.26;100775.22;5013675;28;20041;-73
2021/12/27 06:01:45;;;;;;;14.15;7.78;;;;;;;-11.20;77.78;100777.00;5013058;28;20042;-69
2021/12/27 06:04:11;;;;;;;8.70;7.47;;;;;;;-11.30;77.61;100760.88;5013373;28;20034;-71
2021/12/27 06:06:37;;;;;;;9.50;7.83;;;;;;;-11.07;77.59;100790.50;5013433;28;20037;-72
2021/12/27 06:09:06;;;;;;;9.80;8.73;;;;;;;-11.14;77.68;100776.91;5013779;28;20053;-71
2021/12/27 06:11:32;;;;;;;9.50;7.68;;;;;;;-10.93;77.19;100785.13;4995705;28;20319;-72
2021/12/27 06:13:57;;;;;;;9.87;7.23;;;;;;;-10.96;76.64;100768.03;5013604;28;20033;-72
2021/12/27 06:16:23;;;;;;;11.30;8.60;;;;;;;-10.81;76.79;100785.72;5012708;28;20037;-73
2021/12/27 06:18:49;;;;;;;9.73;7.27;;;;;;;-10.76;76.52;100793.38;5013635;28;20299;-73
2021/12/27 06:21:15;;;;;;;17.03;8.87;;;;;;;-10.72;76.08;100805.28;4995864;28;20040;-76
2021/12/27 06:23:41;;;;;;;10.73;7.25;;;;;;;-10.72;76.24;100818.16;5012769;28;20070;-67
2021/12/27 06:26:07;;;;;;;8.02;6.63;;;;;;;-11.00;76.39;100781.78;5013595;28;20042;-71
2021/12/27 06:28:34;;;;;;;12.97;7.33;;;;;;;-10.71;76.23;100837.88;5012922;28;20408;-71
2021/12/27 06:31:01;;;;;;;11.10;8.70;;;;;;;-10.80;76.71;100815.72;5012544;28;20080;-71
2021/12/27 06:33:27;;;;;;;11.32;7.65;;;;;;;-10.74;76.11;100832.78;5012766;28;20036;-68
2021/12/27 06:35:53;;;;;;;10.05;7.25;;;;;;;-10.77;76.21;100828.53;5010789;28;20034;-71
2021/12/27 06:38:19;;;;;;;10.67;7.73;;;;;;;-10.88;76.15;100820.16;5012377;28;20044;-71
2021/12/27 06:40:44;;;;;;;9.30;7.75;;;;;;;-11.00;76.50;100813.50;5012725;28;20041;-66
2021/12/27 06:43:10;;;;;;;10.37;7.33;;;;;;;-10.78;76.30;100839.69;5012423;28;20034;-66
2021/12/27 06:45:35;;;;;;;12.20;7.90;;;;;;;-11.00;76.34;100808.34;5015650;28;20033;-68
2021/12/27 06:48:01;;;;;;;8.50;7.57;;;;;;;-10.86;76.79;100825.28;5014631;28;20043;-69
2021/12/27 06:50:26;;;;;;;10.47;7.20;;;;;;;-11.19;76.36;100760.69;5020505;28;20065;-70
2021/12/27 06:52:52;;;;;;;9.40;7.23;;;;;;;-10.86;76.93;100830.44;5012304;28;20409;-72
2021/12/27 06:55:18;;;;;;;7.57;6.77;;;;;;;-10.79;76.33;100840.59;5017279;28;20180;-66
2021/12/27 06:57:44;;;;;;;8.43;7.55;;;;;;;-10.79;76.35;100829.44;5017370;28;20053;-67
2021/12/27 07:00:13;;;;;;;12.93;9.93;;;;;;;-10.66;76.05;100861.81;5017975;28;20030;-67
2021/12/27 07:02:39;;;;;;;7.85;7.07;;;;;;;-10.74;76.25;100845.66;5012324;28;20045;-68
2021/12/27 07:05:06;;;;;;;8.33;7.00;;;;;;;-10.63;76.32;100852.31;5015406;28;20042;-65
2021/12/27 07:07:32;;;;;;;10.50;7.95;;;;;;;-10.69;76.63;100856.72;5012788;28;20038;-63
2021/12/27 07:09:59;;;;;;;8.50;6.73;;;;;;;-10.69;76.31;100851.59;5012716;28;20426;-62
2021/12/27 07:12:24;;;;;;;8.68;6.80;;;;;;;-10.56;76.12;100868.50;4994039;28;20049;-63
2021/12/27 07:14:50;;;;;;;9.17;6.97;;;;;;;-10.69;76.28;100846.44;5012733;28;20120;-70
2021/12/27 07:17:16;;;;;;;12.43;9.07;;;;;;;-10.64;76.22;100850.63;5014565;28;20026;-66
2021/12/27 07:19:42;;;;;;;11.85;7.00;;;;;;;-10.52;76.42;100875.28;5032169;28;20079;-68
2021/12/27 07:22:08;;;;;;;10.00;7.40;;;;;;;-10.64;76.60;100857.50;5032156;28;20485;-66
2021/12/27 07:24:34;;;;;;;9.93;7.67;;;;;;;-10.59;76.41;100853.09;5031454;28;20034;-63
2021/12/27 07:27:00;;;;;;;11.47;7.30;;;;;;;-10.43;76.04;100869.94;5031313;28;20159;-67
2021/12/27 07:29:25;;;;;;;11.30;9.07;;;;;;;-10.46;76.00;100864.88;5036150;28;20272;-67
2021/12/27 07:31:51;;;;;;;10.17;7.63;;;;;;;-10.30;76.34;100895.50;5036378;28;20256;-63
2021/12/27 07:34:19;;;;;;;10.50;8.13;;;;;;;-10.28;75.97;100884.28;5032527;28;20088;-65
2021/12/27 07:36:46;;;;;;;19.48;8.43;;;;;;;-10.51;76.01;100835.78;5029375;28;20041;-61
2021/12/27 07:39:13;;;;;;;8.27;7.35;;;;;;;-10.21;75.93;100879.84;5035262;28;20103;-66
2021/12/27 07:41:38;;;;;;;10.93;8.25;;;;;;;-10.24;75.67;100874.78;5017272;28;20033;-71
2021/12/27 07:44:04;;;;;;;9.60;7.53;;;;;;;-10.07;75.44;100885.56;5035397;28;20026;-62
2021/12/27 07:46:30;;;;;;;9.43;7.93;;;;;;;-10.13;75.11;100895.97;5035327;28;20041;-67
2021/12/27 07:48:55;;;;;;;10.07;6.73;;;;;;;-10.09;75.52;100910.53;5035597;28;20047;-61
2021/12/27 07:51:21;;;;;;;7.23;6.07;;;;;;;-10.08;75.65;100907.06;5035026;28;20037;-63
2021/12/27 07:53:46;;;;;;;12.60;7.03;;;;;;;-10.02;75.29;100901.78;5034844;28;20037;-64
2021/12/27 07:56:12;;;;;;;9.17;7.07;;;;;;;-9.90;75.04;100917.00;5034869;28;20128;-62
2021/12/27 07:58:38;;;;;;;8.83;7.27;;;;;;;-9.88;75.32;100916.97;5034866;28;20061;-62
2021/12/27 08:01:04;;;;;;;11.50;7.57;;;;;;;-9.78;74.96;100926.22;5034971;28;20037;-66
2021/12/27 08:03:34;;;;;;;11.60;8.80;;;;;;;-9.81;74.63;100924.56;5034709;28;20053;-64
2021/12/27 08:05:59;;;;;;;9.77;6.90;;;;;;;-9.89;74.90;100918.69;5034577;28;20039;-64
2021/12/27 08:08:27;;;;;;;10.97;6.93;;;;;;;-9.88;74.47;100925.53;5033722;28;20523;-66
2021/12/27 08:10:53;;;;;;;10.95;7.32;;;;;;;-9.95;75.17;100918.81;5001113;28;20049;-65
2021/12/27 08:13:18;;;;;;;8.23;7.43;;;;;;;-9.76;74.46;100951.09;5013066;28;20401;-64
2021/12/27 08:15:44;;;;;;;13.70;7.63;;;;;;;-9.83;74.59;100941.78;5030361;28;20108;-70
2021/12/27 08:18:09;;;;;;;8.53;6.77;;;;;;;-9.73;74.92;100951.03;5013670;28;20030;-63
2021/12/27 08:20:35;;;;;;;11.50;7.70;;;;;;;-9.80;74.42;100938.28;5017421;28;20037;-65
2021/12/27 08:23:00;;;;;;;10.17;8.03;;;;;;;-9.79;74.77;100942.56;5018378;28;20440;-65
2021/12/27 08:25:26;;;;;;;17.23;8.70;;;;;;;-9.70;74.47;100956.09;5024452;28;20116;-64
2021/12/27 08:27:52;;;;;;;10.17;6.70;;;;;;;-9.74;74.02;100958.78;5024985;28;20041;-61
2021/12/27 08:30:17;;;;;;;10.80;6.83;;;;;;;-9.78;74.54;100941.69;5023535;28;20048;-62
2021/12/27 08:32:46;;;;;;;8.80;7.47;;;;;;;-9.60;74.33;100950.75;5027572;28;20083;-66
2021/12/27 08:35:12;;;;;;;11.05;8.25;;;;;;;-9.63;74.09;100935.34;5023201;28;20037;-60
2021/12/27 08:37:40;;;;;;;9.32;7.65;;;;;;;-10.25;73.66;100814.69;5022452;28;20046;-64
2021/12/27 08:40:07;;;;;;;8.75;7.05;;;;;;;-9.36;73.40;100960.56;5000574;28;20515;-64
2021/12/27 08:42:32;;;;;;;11.98;9.05;;;;;;;-9.38;73.22;100957.19;5004750;28;20589;-63
2021/12/27 08:44:58;;;;;;;13.33;8.87;;;;;;;-9.29;73.34;100956.97;5023313;28;20065;-62
2021/12/27 08:47:23;;;;;;;9.63;7.33;;;;;;;-9.19;72.82;100958.50;5024071;28;20490;-66
2021/12/27 08:49:49;;;;;;;10.47;8.63;;;;;;;-9.78;73.17;100849.75;5023380;28;20041;-61
2021/12/27 08:52:15;;;;;;;11.70;8.27;;;;;;;-9.06;73.12;100966.78;5024675;28;20041;-68
2021/12/27 08:54:40;;;;;;;13.03;8.50;;;;;;;-9.01;72.74;100956.38;5023459;28;20037;-67
2021/12/27 08:57:09;;;;;;;11.57;10.17;;;;;;;-9.00;72.84;100945.16;5019430;28;20025;-66
2021/12/27 08:59:36;;;;;;;12.80;8.98;;;;;;;-8.95;73.32;100957.09;5013710;28;20042;-63
2021/12/27 09:02:03;;;;;;;11.52;7.55;;;;;;;-8.90;72.94;100964.72;5014039;28;20064;-65
2021/12/27 09:04:54;;;;;;;14.23;8.52;;;;;;;-9.00;73.56;100932.25;5016017;28;20068;-62
2021/12/27 09:07:20;;;;;;;12.02;8.63;;;;;;;-8.84;73.13;100956.84;5017388;28;20046;-63
2021/12/27 09:09:46;;;;;;;9.10;7.37;;;;;;;-8.71;73.14;100970.28;5014543;28;20050;-64
2021/12/27 09:12:12;;;;;;;9.87;7.37;;;;;;;-8.82;72.96;100960.22;5023633;28;20064;-65
2021/12/27 09:14:38;;;;;;;10.85;6.90;;;;;;;-8.83;72.88;100977.47;5034388;28;20049;-67
2021/12/27 09:17:04;;;;;;;13.00;8.63;;;;;;;-8.80;73.33;100992.03;5034283;28;20056;-66
2021/12/27 09:19:30;;;;;;;11.97;7.87;;;;;;;-8.93;72.28;100970.81;5015863;28;20041;-63
2021/12/27 09:21:56;;;;;;;15.20;8.30;;;;;;;-8.83;72.78;100981.78;5034827;28;20382;-70
2021/12/27 09:24:22;;;;;;;9.23;7.78;;;;;;;-8.81;72.35;100980.00;5035136;28;20420;-69
2021/12/27 09:26:48;;;;;;;12.50;9.53;;;;;;;-8.70;72.30;100987.47;5036516;28;20033;-72
2021/12/27 09:29:14;;;;;;;11.00;6.93;;;;;;;-8.71;72.12;100978.03;5018083;28;20125;-65
2021/12/27 09:31:39;;;;;;;11.60;7.07;;;;;;;-8.58;71.81;100998.41;5033965;28;20037;-65
2021/12/27 09:34:05;;;;;;;11.63;7.07;;;;;;;-8.81;71.50;100960.19;5033385;28;20041;-64
2021/12/27 09:36:30;;;;;;;12.40;7.63;;;;;;;-8.60;71.58;101005.31;5016037;28;20124;-66
2021/12/27 09:38:56;;;;;;;8.93;7.60;;;;;;;-8.84;71.26;100980.91;5033140;28;20118;-64
2021/12/27 09:41:23;;;;;;;8.00;7.17;;;;;;;-8.73;71.69;101006.47;5033818;28;20036;-62
2021/12/27 09:43:49;;;;;;;11.93;7.68;;;;;;;-8.68;71.99;101007.22;5033316;28;20038;-70
2021/12/27 09:46:14;;;;;;;12.90;8.40;;;;;;;-8.75;72.09;101000.50;5015919;28;20042;-63
2021/12/27 09:48:40;;;;;;;14.33;8.57;;;;;;;-8.65;71.81;101004.59;5015049;28;20115;-67
2021/12/27 09:51:07;;;;;;;10.83;8.07;;;;;;;-8.53;71.51;101016.34;5033208;28;20573;-66
2021/12/27 09:53:33;;;;;;;10.05;7.95;;;;;;;-8.53;71.14;100998.28;5015357;28;20451;-69
2021/12/27 09:55:59;;;;;;;13.47;9.00;;;;;;;-8.39;71.43;101027.19;5033056;28;20033;-66
2021/12/27 09:58:25;;;;;;;12.37;9.67;;;;;;;-8.53;70.96;101016.34;5033253;28;20091;-60
2021/12/27 10:00:52;;;;;;;12.52;8.80;;;;;;;-8.53;71.42;101026.69;5032394;28;20299;-62
2021/12/27 10:03:22;;;;;;;9.10;8.18;;;;;;;-8.58;71.46;101024.22;5032827;28;20039;-60
2021/12/27 10:05:49;;;;;;;9.13;7.55;;;;;;;-8.55;71.41;101039.63;5032193;28;20509;-61
2021/12/27 10:08:18;;;;;;;11.35;8.13;;;;;;;-8.70;70.46;101045.13;5031239;28;20049;-61
2021/12/27 10:10:46;;;;;;;12.98;8.77;;;;;;;-8.72;70.81;101053.78;5012872;28;20042;-55
2021/12/27 10:13:12;;;;;;;9.15;6.97;;;;;;;-8.84;70.99;101047.19;5013165;28;20069;-60
2021/12/27 10:15:45;;;;;;;10.03;8.03;;;;;;;-8.95;71.06;101059.47;5013621;28;20130;-62
2021/12/27 10:18:14;;;;;;;7.80;6.75;;;;;;;-9.00;70.95;101059.56;5013771;28;20072;-58
2021/12/27 10:20:41;;;;;;;10.68;7.70;;;;;;;-8.97;71.08;101064.66;5013187;28;20116;-58
2021/12/27 10:23:07;;;;;;;12.90;7.85;;;;;;;-9.07;71.39;101060.56;5011949;28;20409;-59
2021/12/27 10:25:33;;;;;;;11.82;8.55;;;;;;;-9.09;71.57;101057.16;5011210;28;20045;-60
2021/12/27 10:28:01;;;;;;;10.30;8.20;;;;;;;-9.03;71.15;101082.84;5011707;28;20029;-59
2021/12/27 10:30:31;;;;;;;14.70;8.98;;;;;;;-9.34;71.42;101036.19;5013770;28;20064;-65
2021/12/27 10:33:07;;;;;;;12.27;8.52;;;;;;;-9.10;71.84;101079.53;5021516;28;20069;-56
2021/12/27 10:35:42;;;;;;;13.38;8.75;;;;;;;-9.10;71.76;101084.69;5027449;28;20038;-55
2021/12/27 10:38:28;;;;;;;11.77;8.23;;;;;;;-9.23;72.04;101082.41;5029162;28;20060;-56
2021/12/27 10:40:55;;;;;;;12.57;8.00;;;;;;;-9.38;72.64;101086.13;5031440;28;20038;-54
2021/12/27 10:43:38;;;;;;;12.75;10.50;;;;;;;-9.56;72.91;101071.84;5023588;28;20041;-60
2021/12/27 10:46:06;;;;;;;12.88;8.88;;;;;;;-9.54;73.18;101084.69;5012936;28;20042;-57
2021/12/27 10:48:38;;;;;;;8.98;7.28;;;;;;;-9.58;73.29;101077.91;4993894;28;20064;-59
2021/12/27 10:51:04;;;;;;;15.05;9.05;;;;;;;-9.58;73.15;101085.63;5012273;28;20092;-59
2021/12/27 10:53:47;;;;;;;10.80;8.85;;;;;;;-9.66;73.29;101075.47;5011994;28;20041;-56
2021/12/27 10:56:13;;;;;;;11.27;8.18;;;;;;;-9.56;73.40;101096.75;5027667;28;20038;-60
2021/12/27 10:58:48;;;;;;;12.68;9.40;;;;;;;-9.60;73.29;101101.13;5012512;28;20034;-58
2021/12/27 11:01:19;;;;;;;13.18;8.68;;;;;;;-9.69;73.24;101091.00;5012381;28;20482;-64
2021/12/27 11:03:50;;;;;;;14.80;9.50;;;;;;;-9.62;73.82;101099.47;5012464;28;20678;-57
2021/12/27 11:06:24;;;;;;;10.63;7.57;;;;;;;-9.75;73.45;101065.34;5012702;28;20524;-58
2021/12/27 11:08:52;;;;;;;12.32;7.43;;;;;;;-9.51;73.32;101088.09;5012293;28;20049;-61
2021/12/27 11:11:23;;;;;;;12.77;9.30;;;;;;;-9.30;72.86;101079.09;5012346;28;20513;-59
2021/12/27 11:13:53;;;;;;;10.43;6.80;;;;;;;-9.19;72.58;101086.63;5011960;28;20041;-56
2021/12/27 11:16:19;;;;;;;10.70;7.15;;;;;;;-9.08;72.49;101095.84;5012735;28;20091;-54
2021/12/27 11:18:45;;;;;;;7.85;6.88;;;;;;;-9.02;72.50;101088.84;5012451;28;20037;-57
2021/12/27 11:21:17;;;;;;;10.07;7.07;;;;;;;-9.02;72.42;101083.69;5012544;28;20037;-53
2021/12/27 11:23:46;;;;;;;13.88;8.20;;;;;;;-9.00;72.65;101076.75;5027690;28;20177;-56
2021/12/27 11:26:12;;;;;;;;;;;;;;;-8.83;72.74;101103.09;5013018;28;20507;-60
2021/12/27 11:28:44;;;;;;;9.80;7.82;;;;;;;-8.81;72.51;101109.06;5012427;28;19975;-59